Time;durP1;ratioP1;P1;durP2;ratioP2;P2;SDS_P1;SDS_P2;PMS_P1;PMS_P2;Temp;Humidity;BMP_temperature;BMP_pressure;BME280_temperature;BME280_humidity;BME280_pressure;Samples;Min_cycle;Max_cycle;Signal;HPM_P1;HPM_P2
2022/07/27 00:01:52;;;;;;;1.77;1.20;;;12.50;99.90;11.80;100084;;;;575419;246;24082;-84
2022/07/27 00:04:20;;;;;;;2.63;1.13;;;12.50;99.90;11.80;100085;;;;586377;242;24021;-83
2022/07/27 00:06:47;;;;;;;3.70;1.20;;;12.50;99.90;11.70;100086;;;;584275;244;24105;-83
2022/07/27 00:09:18;;;;;;;3.03;1.17;;;12.40;99.90;11.70;100087;;;;571433;247;24097;-83
2022/07/27 00:11:43;;;;;;;3.00;1.23;;;12.40;99.90;11.60;100092;;;;583946;245;24066;-84
2022/07/27 00:14:12;;;;;;;3.87;1.00;;;12.30;99.90;11.50;100082;;;;573041;246;24069;-83
2022/07/27 00:16:40;;;;;;;4.37;1.10;;;12.20;99.90;11.40;100086;;;;575233;245;24129;-83
2022/07/27 00:19:08;;;;;;;3.97;1.63;;;12.10;99.90;11.40;100083;;;;585625;241;24134;-83
2022/07/27 00:21:40;;;;;;;2.60;1.30;;;12.10;99.90;11.30;100087;;;;574925;243;24058;-83
2022/07/27 00:24:04;;;;;;;1.50;1.20;;;12.00;99.90;11.30;100084;;;;579153;246;24136;-84
2022/07/27 00:26:33;;;;;;;3.87;1.37;;;12.00;99.90;11.20;100089;;;;585782;242;24135;-84
2022/07/27 00:29:03;;;;;;;5.30;1.30;;;11.90;99.90;11.20;100092;;;;586058;242;24049;-83
2022/07/27 00:31:31;;;;;;;4.23;1.43;;;11.90;99.90;11.20;100092;;;;572960;246;24100;-83
2022/07/27 00:34:08;;;;;;;3.10;1.40;;;11.80;99.90;11.10;100092;;;;575806;246;24085;-84
2022/07/27 00:36:28;;;;;;;3.33;1.67;;;11.80;99.90;11.10;100090;;;;569301;246;24132;-83
2022/07/27 00:38:59;;;;;;;4.10;1.77;;;11.80;99.90;11.10;100090;;;;571412;246;24128;-81
2022/07/27 00:41:29;;;;;;;3.07;1.30;;;11.70;99.90;11.00;100098;;;;574879;246;24124;-83
2022/07/27 00:44:00;;;;;;;2.40;1.30;;;11.70;99.90;11.00;100096;;;;585296;242;27267;-84
2022/07/27 00:46:31;;;;;;;2.00;1.13;;;11.70;99.90;11.00;100090;;;;583467;246;24053;-83
2022/07/27 00:48:56;;;;;;;2.93;1.50;;;11.60;99.90;10.90;100102;;;;582853;245;24074;-83
2022/07/27 00:51:24;;;;;;;3.03;1.70;;;11.60;99.90;10.90;100100;;;;574331;247;24070;-82
2022/07/27 00:53:54;;;;;;;3.40;1.33;;;11.60;99.90;10.90;100100;;;;574687;246;24174;-83
2022/07/27 00:56:26;;;;;;;3.53;1.40;;;11.60;99.90;10.90;100097;;;;571022;247;24149;-83
2022/07/27 00:58:54;;;;;;;5.90;1.70;;;11.60;99.90;10.90;100108;;;;582243;246;24066;-83
2022/07/27 01:01:23;;;;;;;3.90;1.80;;;11.60;99.90;11.00;100113;;;;574006;247;24148;-84
2022/07/27 01:03:54;;;;;;;3.67;1.73;;;11.60;99.90;11.00;100100;;;;574133;246;24073;-84
2022/07/27 01:06:24;;;;;;;4.20;1.40;;;11.60;99.90;11.00;100109;;;;570082;246;24090;-83
2022/07/27 01:08:57;;;;;;;1.87;1.70;;;11.70;99.90;11.00;100103;;;;586206;241;24107;-84
2022/07/27 01:11:16;;;;;;;3.20;1.50;;;11.70;99.90;11.00;100103;;;;570996;246;24085;-84
2022/07/27 01:13:45;;;;;;;2.80;1.43;;;11.70;99.90;10.90;100106;;;;575421;246;24073;-83
2022/07/27 01:16:15;;;;;;;5.93;1.70;;;11.60;99.90;10.90;100108;;;;575557;246;24067;-84
2022/07/27 01:18:42;;;;;;;1.70;1.30;;;11.60;99.90;10.90;100098;;;;575516;245;24057;-84
2022/07/27 01:21:10;;;;;;;4.00;1.47;;;11.60;99.90;10.80;100096;;;;575279;246;24070;-84
2022/07/27 01:23:38;;;;;;;4.57;1.67;;;11.50;99.90;10.90;100102;;;;575306;246;24056;-83
2022/07/27 01:26:06;;;;;;;7.33;1.30;;;11.60;99.90;10.90;100100;;;;575142;246;24082;-84
2022/07/27 01:28:34;;;;;;;3.27;1.53;;;11.60;99.90;11.00;100104;;;;574886;245;24064;-84
2022/07/27 01:31:03;;;;;;;3.57;1.47;;;11.60;99.90;11.00;100095;;;;575125;246;24137;-84
2022/07/27 01:33:31;;;;;;;3.67;1.60;;;11.60;99.90;10.90;100098;;;;574981;246;24056;-83
2022/07/27 01:36:03;;;;;;;3.30;1.53;;;11.60;99.90;10.90;100096;;;;574851;246;24324;-82
2022/07/27 01:38:27;;;;;;;4.43;1.40;;;11.50;99.90;10.80;100103;;;;574158;246;24103;-84
2022/07/27 01:40:55;;;;;;;7.13;1.50;;;11.50;99.90;10.70;100094;;;;574821;246;24100;-82
2022/07/27 01:43:26;;;;;;;1.70;1.43;;;11.50;99.90;10.70;100093;;;;574883;245;24061;-84
2022/07/27 01:45:51;;;;;;;3.63;2.00;;;11.40;99.90;10.70;100100;;;;574322;246;24071;-84
2022/07/27 01:48:19;;;;;;;1.60;1.47;;;11.40;99.90;10.70;100108;;;;579424;244;24074;-84
2022/07/27 01:50:50;;;;;;;5.43;1.60;;;11.40;99.90;10.60;100099;;;;579021;244;24053;-84
2022/07/27 01:53:15;;;;;;;3.77;1.67;;;11.30;99.90;10.60;100105;;;;587601;244;24158;-84
2022/07/27 01:55:47;;;;;;;5.00;1.70;;;11.30;99.90;10.50;100087;;;;579177;244;24056;-84
2022/07/27 01:58:12;;;;;;;4.13;1.47;;;11.20;99.90;10.50;100090;;;;587662;244;24091;-82
2022/07/27 02:00:43;;;;;;;3.30;1.53;;;11.20;99.90;10.40;100085;;;;579450;244;24118;-84
2022/07/27 02:03:13;;;;;;;1.60;1.50;;;11.10;99.90;10.30;100087;;;;579033;244;24120;-83
2022/07/27 02:05:40;;;;;;;3.87;1.63;;;11.10;99.90;10.30;100091;;;;578686;244;24144;-84
2022/07/27 02:08:08;;;;;;;3.07;1.60;;;11.00;99.90;10.20;100082;;;;578977;244;24104;-83
2022/07/27 02:10:33;;;;;;;4.80;1.50;;;10.90;99.90;10.20;100083;;;;578780;244;24080;-84
2022/07/27 02:13:04;;;;;;;2.03;1.53;;;10.90;99.90;10.20;100085;;;;579133;244;24105;-84
2022/07/27 02:15:31;;;;;;;11.43;2.00;;;10.90;99.90;10.20;100081;;;;578836;244;24129;-85
2022/07/27 02:17:57;;;;;;;6.13;1.67;;;10.90;99.90;10.20;100078;;;;578973;244;25164;-85
2022/07/27 02:20:29;;;;;;;4.10;1.70;;;10.80;99.90;10.20;100077;;;;580226;243;24104;-85
2022/07/27 02:22:54;;;;;;;6.77;1.60;;;10.80;99.90;10.10;100074;;;;579931;243;24093;-82
2022/07/27 02:25:23;;;;;;;3.87;1.70;;;10.80;99.90;10.10;100079;;;;579772;243;24055;-84
2022/07/27 02:27:53;;;;;;;6.20;2.07;;;10.80;99.90;10.20;100065;;;;579706;244;24170;-83
2022/07/27 02:30:21;;;;;;;6.43;1.50;;;10.80;99.90;10.20;100064;;;;579548;244;24098;-84
2022/07/27 02:32:49;;;;;;;3.27;1.83;;;10.80;99.90;10.20;100064;;;;579551;244;24133;-84
2022/07/27 02:35:17;;;;;;;8.63;2.03;;;10.80;99.90;10.20;100065;;;;579911;244;24051;-84
2022/07/27 02:37:45;;;;;;;10.87;1.97;;;10.90;99.90;10.20;100063;;;;579462;244;24089;-82
2022/07/27 02:40:15;;;;;;;5.97;1.77;;;10.80;99.90;10.20;100062;;;;579280;244;24093;-84
2022/07/27 02:42:40;;;;;;;4.57;1.53;;;10.80;99.90;10.20;100062;;;;582941;244;24134;-83
2022/07/27 02:45:08;;;;;;;8.27;1.90;;;10.80;99.90;10.20;100059;;;;579314;244;24168;-84
2022/07/27 02:47:38;;;;;;;6.80;1.87;;;10.80;99.90;10.20;100066;;;;576871;244;24089;-85
2022/07/27 02:50:08;;;;;;;4.63;1.53;;;10.80;99.90;10.20;100067;;;;579266;244;24085;-85
2022/07/27 02:52:32;;;;;;;7.53;1.90;;;10.80;99.90;10.20;100068;;;;582589;244;24126;-84
2022/07/27 02:55:03;;;;;;;8.17;1.80;;;10.90;99.90;10.20;100070;;;;579280;244;24067;-85
2022/07/27 02:57:28;;;;;;;4.00;1.93;;;10.80;99.90;10.20;100077;;;;578415;244;24095;-85
2022/07/27 02:59:56;;;;;;;2.83;1.60;;;10.90;99.90;10.30;100081;;;;579011;244;24040;-85
2022/07/27 03:02:24;;;;;;;10.37;1.30;;;10.90;99.90;10.30;100089;;;;579316;244;24086;-84
2022/07/27 03:04:53;;;;;;;4.50;1.60;;;10.90;99.90;10.30;100078;;;;578896;244;24158;-85
2022/07/27 03:07:24;;;;;;;5.13;1.63;;;11.00;99.90;10.40;100075;;;;578955;244;24072;-84
2022/07/27 03:09:53;;;;;;;6.33;1.40;;;11.00;99.90;10.40;100075;;;;587499;244;24118;-84
2022/07/27 03:12:21;;;;;;;8.10;1.53;;;11.00;99.90;10.50;100081;;;;587491;244;24086;-84
2022/07/27 03:14:45;;;;;;;4.13;1.43;;;11.10;99.90;10.50;100076;;;;578709;244;24082;-83
2022/07/27 03:17:15;;;;;;;2.50;1.27;;;11.10;99.90;10.50;100077;;;;579075;244;24116;-85
2022/07/27 03:19:42;;;;;;;4.20;1.90;;;11.20;99.90;10.60;100083;;;;579008;244;24081;-84
2022/07/27 03:22:11;;;;;;;3.53;1.90;;;11.20;99.90;10.60;100087;;;;578907;244;24073;-84
2022/07/27 03:24:39;;;;;;;9.27;1.90;;;11.20;99.90;10.70;100098;;;;578978;244;24110;-85
2022/07/27 03:27:10;;;;;;;7.87;1.70;;;11.30;99.90;10.80;100096;;;;578899;244;24082;-84
2022/07/27 03:29:35;;;;;;;6.53;1.87;;;11.40;99.90;10.80;100091;;;;578719;244;24083;-84
2022/07/27 03:32:03;;;;;;;1.60;1.47;;;11.40;99.90;10.90;100090;;;;580322;243;24054;-84
2022/07/27 03:34:31;;;;;;;3.00;1.37;;;11.50;99.90;11.00;100097;;;;580317;243;24054;-84
2022/07/27 03:36:59;;;;;;;4.43;1.40;;;11.50;99.90;11.00;100098;;;;579744;243;24103;-84
2022/07/27 03:39:26;;;;;;;5.03;1.60;;;11.60;99.90;11.10;100094;;;;574585;244;35186;-83
2022/07/27 03:41:55;;;;;;;6.07;1.33;;;11.80;99.90;11.20;100095;;;;579403;244;24137;-83
2022/07/27 03:44:24;;;;;;;2.53;1.57;;;11.90;99.90;11.30;100097;;;;579041;244;24079;-84
2022/07/27 03:46:53;;;;;;;9.40;1.50;;;12.10;99.90;11.50;100098;;;;579207;244;24183;-83
2022/07/27 03:49:20;;;;;;;8.07;1.60;;;12.00;99.90;11.80;100094;;;;578931;244;24071;-84
2022/07/27 03:51:48;;;;;;;5.37;1.43;;;12.30;99.90;12.30;100096;;;;578762;244;24126;-83
2022/07/27 03:54:16;;;;;;;2.90;1.57;;;12.80;99.90;13.20;100101;;;;578809;244;24075;-83
2022/07/27 03:56:44;;;;;;;4.63;1.70;;;13.60;99.90;14.20;100110;;;;578855;244;24068;-83
2022/07/27 03:59:12;;;;;;;4.67;1.60;;;14.60;99.90;15.20;100107;;;;578937;244;24151;-84
2022/07/27 04:01:45;;;;;;;3.33;1.20;;;16.60;99.90;16.10;100104;;;;579220;244;24119;-84
2022/07/27 04:04:09;;;;;;;5.07;1.27;;;17.50;99.90;16.90;100105;;;;587492;244;24088;-84
2022/07/27 04:06:37;;;;;;;9.17;1.23;;;17.40;99.90;17.70;100113;;;;578714;244;24080;-84
2022/07/27 04:09:05;;;;;;;8.17;1.63;;;18.30;99.90;18.60;100107;;;;578475;244;24075;-84
2022/07/27 04:11:34;;;;;;;5.53;1.33;;;19.80;99.90;19.00;100113;;;;578645;244;24092;-84
2022/07/27 04:14:03;;;;;;;4.77;1.40;;;20.20;99.90;19.50;100114;;;;578492;244;24057;-85
2022/07/27 04:16:31;;;;;;;10.27;1.67;;;20.20;99.90;20.20;100108;;;;578672;244;24057;-85
2022/07/27 04:18:58;;;;;;;9.47;1.60;;;20.90;99.90;21.00;100110;;;;578542;244;24049;-83
2022/07/27 04:21:26;;;;;;;2.90;1.47;;;21.70;99.90;21.70;100109;;;;578472;244;23122;-84
2022/07/27 04:23:54;;;;;;;2.13;1.43;;;22.40;99.90;22.40;100116;;;;578589;244;24068;-84
2022/07/27 04:26:22;;;;;;;5.97;1.50;;;23.20;99.90;23.20;100119;;;;573460;244;46092;-85
2022/07/27 04:28:50;;;;;;;5.63;1.57;;;23.90;99.70;23.60;100119;;;;578579;244;24118;-84
2022/07/27 04:31:18;;;;;;;5.73;1.60;;;24.50;96.80;24.10;100117;;;;578474;244;24045;-84
2022/07/27 04:33:47;;;;;;;6.83;1.60;;;25.40;92.40;24.50;100130;;;;578652;244;24079;-84
2022/07/27 04:36:15;;;;;;;4.73;1.10;;;26.00;90.50;25.00;100129;;;;578590;244;23078;-84
2022/07/27 04:38:43;;;;;;;7.50;1.80;;;25.90;90.50;25.90;100134;;;;578419;244;24144;-85
2022/07/27 04:41:11;;;;;;;5.47;1.53;;;26.80;86.10;26.50;100129;;;;578676;244;23079;-84
2022/07/27 04:43:39;;;;;;;2.77;1.40;;;27.50;81.60;27.20;100138;;;;579979;243;23116;-85
2022/07/27 04:46:07;;;;;;;4.43;1.60;;;28.20;76.30;26.50;100134;;;;579766;243;23125;-84
2022/07/27 04:48:39;;;;;;;4.00;1.47;;;27.70;73.60;26.30;100136;;;;579287;243;23107;-85
2022/07/27 04:51:03;;;;;;;3.40;1.13;;;27.50;73.80;26.10;100135;;;;578998;244;23113;-86
2022/07/27 04:53:31;;;;;;;4.60;1.40;;;27.30;73.00;25.10;100139;;;;579107;244;23100;-86
2022/07/27 04:55:59;;;;;;;3.23;1.37;;;25.30;75.60;24.00;100141;;;;578992;244;23079;-84
2022/07/27 04:58:27;;;;;;;2.90;1.20;;;25.20;75.50;23.00;100138;;;;579187;244;23070;-84
2022/07/27 05:00:55;;;;;;;5.17;1.50;;;24.20;79.20;22.40;100136;;;;578922;244;24146;-84
2022/07/27 05:03:26;;;;;;;7.17;1.10;;;23.30;82.00;22.10;100146;;;;578945;244;24106;-84
2022/07/27 05:05:51;;;;;;;4.27;1.80;;;22.80;84.60;22.80;100152;;;;587454;243;24066;-84
2022/07/27 05:08:20;;;;;;;2.77;1.10;;;23.70;84.70;23.20;100151;;;;578759;244;24110;-84
2022/07/27 05:10:48;;;;;;;1.97;1.17;;;23.70;84.70;23.20;100152;;;;576363;244;24104;-83
2022/07/27 05:13:16;;;;;;;3.93;1.37;;;23.80;83.40;24.40;100150;;;;578853;244;24165;-83
2022/07/27 05:15:44;;;;;;;5.17;2.30;;;24.70;82.40;25.50;100151;;;;579130;244;24052;-84
2022/07/27 05:18:11;;;;;;;2.77;1.27;;;25.90;79.00;25.40;100150;;;;578981;244;23085;-84
2022/07/27 05:20:40;;;;;;;3.97;1.53;;;26.10;75.60;25.70;100146;;;;578497;244;24087;-83
2022/07/27 05:23:08;;;;;;;2.63;1.23;;;26.40;75.80;26.40;100141;;;;578598;244;24095;-83
2022/07/27 05:25:39;;;;;;;2.37;1.53;;;27.00;73.60;27.80;100149;;;;578555;244;23075;-82
2022/07/27 05:28:05;;;;;;;2.60;1.30;;;29.90;67.00;29.50;100163;;;;587231;244;23128;-83
2022/07/27 05:30:33;;;;;;;4.13;1.20;;;29.80;66.90;29.40;100155;;;;578530;244;23122;-83
2022/07/27 05:33:01;;;;;;;4.23;1.73;;;30.20;63.30;29.90;100149;;;;578665;244;24068;-83
2022/07/27 05:35:29;;;;;;;4.15;1.17;;;30.60;62.30;31.30;100153;;;;579103;244;23081;-83
2022/07/27 05:37:57;;;;;;;6.62;1.60;;;31.80;59.50;32.80;100159;;;;579465;244;23097;-84
2022/07/27 05:40:28;;;;;;;3.85;1.45;;;33.20;57.00;34.30;100154;;;;579335;244;23105;-84
2022/07/27 05:42:53;;;;;;;4.00;1.50;;;34.70;54.10;35.60;100157;;;;575856;244;23079;-84
2022/07/27 05:45:20;;;;;;;5.10;1.75;;;36.10;51.00;36.50;100169;;;;578681;244;23066;-84
2022/07/27 05:47:49;;;;;;;11.45;1.85;;;37.50;46.70;36.80;100170;;;;578596;244;24156;-83
2022/07/27 05:50:18;;;;;;;4.85;1.40;;;37.20;46.00;36.20;100174;;;;578978;244;24128;-83
2022/07/27 05:52:46;;;;;;;1.70;1.27;;;35.80;46.70;34.30;100175;;;;578635;244;23084;-83
2022/07/27 05:55:15;;;;;;;2.30;1.37;;;33.90;48.60;32.20;100172;;;;579923;243;23073;-84
2022/07/27 05:57:43;;;;;;;3.85;1.62;;;33.90;48.60;30.70;100171;;;;579645;243;23121;-84
2022/07/27 06:00:15;;;;;;;2.78;1.30;;;32.20;50.70;29.50;100170;;;;579294;243;23070;-84
2022/07/27 06:02:39;;;;;;;3.25;1.25;;;30.80;52.90;28.50;100170;;;;579064;244;23128;-84
2022/07/27 06:05:07;;;;;;;5.60;1.40;;;29.60;55.00;28.60;100169;;;;575062;244;24115;-85
2022/07/27 06:10:22;;;;;;;8.90;1.57;;;28.80;57.10;27.40;100174;;;;578993;244;23078;-85
2022/07/27 06:12:50;;;;;;;9.40;1.70;;;28.10;58.10;26.90;100179;;;;578862;244;23132;-84
2022/07/27 06:15:18;;;;;;;5.03;1.40;;;27.60;59.60;26.50;100184;;;;578842;244;23087;-84
2022/07/27 06:17:48;;;;;;;8.50;1.80;;;26.70;61.40;26.20;100184;;;;578730;244;23192;-82
2022/07/27 06:20:14;;;;;;;22.07;2.30;;;26.70;61.40;27.00;100179;;;;578823;244;24099;-83
2022/07/27 06:22:48;;;;;;;8.87;1.70;;;27.10;62.30;28.90;100182;;;;578708;244;23065;-83
2022/07/27 06:25:19;;;;;;;8.27;1.10;;;28.80;60.30;31.10;100189;;;;578715;244;23105;-83
2022/07/27 06:27:44;;;;;;;2.78;1.35;;;30.90;56.60;32.20;100185;;;;587438;243;23077;-84
2022/07/27 06:30:15;;;;;;;6.20;1.70;;;33.80;51.10;33.80;100176;;;;578831;244;23098;-83
2022/07/27 06:32:46;;;;;;;5.70;1.25;;;33.70;51.00;35.50;100186;;;;576091;244;23123;-84
2022/07/27 06:35:11;;;;;;;13.55;1.37;;;35.60;48.60;36.40;100186;;;;587260;244;23125;-84
2022/07/27 06:37:42;;;;;;;3.67;1.20;;;36.70;46.90;36.20;100196;;;;578618;244;24085;-84
2022/07/27 06:40:11;;;;;;;6.62;1.27;;;36.80;45.20;35.50;100198;;;;578412;244;23085;-83
2022/07/27 06:42:35;;;;;;;6.57;1.30;;;36.30;45.40;35.20;100193;;;;578321;244;23099;-82
2022/07/27 06:45:03;;;;;;;33.03;3.33;;;35.90;45.10;34.80;100188;;;;578552;244;23117;-83
2022/07/27 06:47:31;;;;;;;6.82;1.40;;;35.40;45.90;35.20;100189;;;;578658;244;23073;-83
2022/07/27 06:49:59;;;;;;;2.60;1.10;;;35.60;45.90;36.50;100193;;;;578592;244;23079;-84
2022/07/27 06:52:26;;;;;;;3.65;1.00;;;36.60;44.90;38.30;100194;;;;578532;244;23098;-83
2022/07/27 06:54:55;;;;;;;3.60;1.25;;;38.20;43.60;39.70;100196;;;;578949;244;23093;-84
2022/07/27 06:57:23;;;;;;;4.40;1.08;;;40.70;40.30;40.60;100191;;;;578979;244;24104;-84
2022/07/27 06:59:51;;;;;;;1.83;1.05;;;40.60;40.20;41.40;100191;;;;578919;244;24102;-84
2022/07/27 07:02:19;;;;;;;2.47;1.08;;;41.60;39.30;42.00;100195;;;;578594;244;23090;-84
2022/07/27 07:04:47;;;;;;;4.05;1.10;;;42.30;37.90;42.50;100202;;;;578525;241;24113;-84
2022/07/27 07:07:15;;;;;;;3.47;1.20;;;42.80;37.20;42.50;100198;;;;580129;243;23066;-84
2022/07/27 07:09:43;;;;;;;2.75;1.12;;;42.90;37.90;43.00;100187;;;;579539;243;23069;-84
2022/07/27 07:12:11;;;;;;;2.67;1.00;;;43.30;36.30;43.00;100196;;;;579475;243;24166;-85
2022/07/27 07:14:39;;;;;;;2.35;1.30;;;43.50;35.70;43.20;100198;;;;579319;244;23071;-84
2022/07/27 07:17:08;;;;;;;2.45;1.00;;;43.60;35.40;43.30;100206;;;;579132;244;23173;-84
2022/07/27 07:19:36;;;;;;;2.35;1.23;;;43.60;35.40;43.70;100206;;;;576686;244;23147;-84
2022/07/27 07:22:04;;;;;;;13.98;1.67;;;43.90;34.60;44.10;100205;;;;579029;244;24119;-84
2022/07/27 07:24:32;;;;;;;24.00;2.53;;;44.40;34.10;44.80;100211;;;;578776;244;23182;-83
2022/07/27 07:27:00;;;;;;;5.18;1.17;;;44.90;33.40;45.00;100209;;;;578682;244;23073;-84
2022/07/27 07:29:28;;;;;;;19.42;1.92;;;45.20;32.80;44.90;100206;;;;587471;243;23125;-84
2022/07/27 07:31:55;;;;;;;5.62;1.40;;;45.30;32.50;44.60;100207;;;;578791;244;25235;-84
2022/07/27 07:34:23;;;;;;;1.92;0.93;;;45.00;32.70;44.90;100213;;;;578684;244;23129;-84
2022/07/27 07:36:51;;;;;;;14.80;2.33;;;45.10;32.50;44.20;100212;;;;578831;244;23079;-84
2022/07/27 07:39:19;;;;;;;35.42;3.78;;;44.80;32.70;42.80;100211;;;;578759;244;23165;-84
2022/07/27 07:41:47;;;;;;;5.80;1.17;;;43.70;32.30;41.30;100208;;;;578756;244;23115;-84
2022/07/27 07:44:15;;;;;;;2.53;1.25;;;42.30;33.50;39.80;100214;;;;578511;244;24093;-84
2022/07/27 07:46:44;;;;;;;28.42;2.00;;;39.40;35.90;38.20;100215;;;;578672;244;23074;-84
2022/07/27 07:49:12;;;;;;;6.80;1.23;;;38.00;37.20;37.10;100215;;;;578608;244;23089;-84
2022/07/27 07:51:42;;;;;;;74.85;5.10;;;37.00;38.20;36.30;100210;;;;579004;244;24110;-84
2022/07/27 07:54:10;;;;;;;20.92;2.03;;;37.00;38.10;35.90;100218;;;;579005;244;24114;-84
2022/07/27 07:56:38;;;;;;;10.73;1.55;;;36.40;39.00;35.10;100224;;;;578986;244;23120;-84
2022/07/27 07:59:06;;;;;;;17.12;2.03;;;35.70;39.60;33.80;100222;;;;579002;244;24117;-84
2022/07/27 08:01:34;;;;;;;16.65;1.90;;;34.60;40.10;32.40;100231;;;;578923;244;24092;-84
2022/07/27 08:04:03;;;;;;;31.40;2.25;;;33.30;41.70;31.00;100230;;;;578786;244;23113;-84
2022/07/27 08:06:34;;;;;;;10.18;1.65;;;31.90;43.70;29.90;100229;;;;578688;244;23061;-84
2022/07/27 08:08:59;;;;;;;25.73;2.85;;;30.60;45.60;29.30;100232;;;;575972;244;23093;-82
2022/07/27 08:11:27;;;;;;;21.10;1.60;;;29.90;48.20;29.50;100229;;;;578703;244;23105;-84
2022/07/27 08:13:55;;;;;;;16.95;1.60;;;29.70;48.40;29.90;100237;;;;578393;244;24060;-83
2022/07/27 08:16:23;;;;;;;2.40;0.60;;;30.00;47.50;30.00;100232;;;;578718;242;23063;-83
2022/07/27 08:18:50;;;;;;;2.78;1.12;;;30.20;46.60;29.50;100235;;;;580060;243;23072;-82
2022/07/27 08:21:18;;;;;;;4.90;0.95;;;29.90;47.50;29.10;100241;;;;579452;243;23097;-83
2022/07/27 08:23:46;;;;;;;8.93;1.52;;;29.60;48.30;28.50;100237;;;;579457;243;23070;-83
2022/07/27 08:26:14;;;;;;;2.53;0.73;;;29.10;48.90;27.70;100246;;;;579220;244;23134;-83
2022/07/27 08:28:43;;;;;;;1.90;0.80;;;28.40;50.10;26.90;100243;;;;579217;244;23064;-84
2022/07/27 08:31:11;;;;;;;1.23;1.00;;;27.60;51.50;26.20;100243;;;;579091;244;23092;-84
2022/07/27 08:33:39;;;;;;;2.60;1.00;;;26.80;52.90;25.70;100251;;;;579505;244;23098;-83
2022/07/27 08:36:07;;;;;;;12.00;1.43;;;26.20;54.50;25.60;100246;;;;578933;244;23065;-84
2022/07/27 08:38:35;;;;;;;8.70;1.77;;;26.00;55.40;25.60;100248;;;;576238;244;23118;-83
2022/07/27 08:41:03;;;;;;;9.80;1.10;;;25.90;55.70;25.50;100255;;;;578846;244;23056;-84
2022/07/27 08:43:32;;;;;;;3.30;0.70;;;25.70;55.40;25.40;100249;;;;578734;244;23095;-83
2022/07/27 08:46:00;;;;;;;77.57;4.43;;;25.70;55.40;25.20;100252;;;;578926;244;23102;-84
2022/07/27 08:48:27;;;;;;;11.17;1.17;;;25.60;55.80;25.00;100257;;;;578803;244;23069;-84
2022/07/27 08:50:56;;;;;;;4.77;0.90;;;25.10;57.10;24.70;100253;;;;578606;244;23184;-84
2022/07/27 08:53:24;;;;;;;8.40;1.50;;;25.10;57.10;24.20;100267;;;;576226;244;23082;-82
2022/07/27 08:55:55;;;;;;;12.10;0.90;;;24.70;58.30;24.00;100270;;;;578557;244;24105;-83
2022/07/27 08:58:21;;;;;;;2.67;0.90;;;24.40;59.30;23.90;100277;;;;584465;242;24043;-84
2022/07/27 09:00:53;;;;;;;7.30;0.93;;;24.30;59.90;23.50;100275;;;;584722;242;24062;-83
2022/07/27 09:03:17;;;;;;;3.13;0.80;;;24.00;61.10;23.30;100272;;;;578259;247;24061;-84
2022/07/27 09:05:45;;;;;;;0.90;0.90;;;23.70;62.70;23.10;100268;;;;574197;246;23189;-84
2022/07/27 09:08:13;;;;;;;2.80;0.70;;;23.50;64.40;23.40;100262;;;;582305;246;24039;-84
2022/07/27 09:10:41;;;;;;;6.70;0.80;;;23.70;64.20;25.00;100270;;;;574148;246;24243;-83
2022/07/27 09:13:27;;;;;;;2.53;0.90;;;24.90;63.40;28.30;100265;;;;574200;245;23098;-84
2022/07/27 09:15:58;;;;;;;8.00;1.07;;;27.90;58.70;30.60;100264;;;;570178;247;23065;-83
2022/07/27 09:18:26;;;;;;;4.57;0.93;;;30.60;53.30;33.00;100257;;;;584441;242;23099;-84
2022/07/27 09:21:15;;;;;;;34.13;2.35;;;33.00;49.40;34.30;100275;;;;574388;246;23114;-85
2022/07/27 09:23:43;;;;;;;18.75;1.77;;;34.60;46.50;34.90;100272;;;;574512;246;23062;-85
2022/07/27 09:26:19;;;;;;;4.93;1.08;;;35.60;44.20;34.70;100281;;;;574305;246;23103;-85
2022/07/27 09:28:47;;;;;;;6.07;1.00;;;35.60;44.60;34.40;100278;;;;572856;246;23118;-83
2022/07/27 09:31:19;;;;;;;21.80;2.45;;;35.40;43.80;34.50;100276;;;;590295;243;23117;-84
2022/07/27 09:33:46;;;;;;;13.65;1.27;;;35.50;43.50;34.20;100277;;;;583566;240;23072;-83
2022/07/27 09:36:19;;;;;;;2.78;0.60;;;35.20;44.20;34.30;100277;;;;574619;246;24095;-83
2022/07/27 09:38:56;;;;;;;4.87;1.00;;;35.40;44.00;34.60;100285;;;;574663;246;23108;-83
2022/07/27 09:41:20;;;;;;;9.40;1.05;;;35.40;44.00;35.20;100273;;;;574917;246;24159;-83
2022/07/27 09:43:54;;;;;;;6.18;1.10;;;35.80;43.60;35.50;100279;;;;574943;246;23078;-83
2022/07/27 09:46:31;;;;;;;0.90;0.57;;;36.20;42.90;35.30;100289;;;;574978;246;23080;-84
2022/07/27 09:48:59;;;;;;;1.67;0.80;;;36.10;42.70;34.30;100289;;;;589159;239;34905;-83
2022/07/27 09:51:28;;;;;;;4.78;0.65;;;35.50;43.00;32.90;100289;;;;585226;242;23038;-83
2022/07/27 09:53:56;;;;;;;12.60;1.40;;;34.30;44.00;31.60;100278;;;;585332;242;26230;-83
2022/07/27 09:56:30;;;;;;;18.20;1.37;;;33.00;45.70;31.00;100274;;;;574917;246;24113;-83
2022/07/27 09:58:58;;;;;;;3.95;0.65;;;31.60;47.60;30.90;100287;;;;583848;244;23068;-82
2022/07/27 10:01:33;;;;;;;7.62;0.93;;;31.50;47.50;31.50;100276;;;;576021;246;23073;-82
2022/07/27 10:03:57;;;;;;;24.45;1.73;;;31.80;48.30;31.90;100278;;;;575108;246;23083;-82
2022/07/27 10:06:25;;;;;;;11.70;1.05;;;32.30;46.70;31.60;100279;;;;574829;246;23135;-82
2022/07/27 10:08:53;;;;;;;6.65;0.90;;;32.20;46.40;31.80;100273;;;;574786;246;23091;-82
2022/07/27 10:11:21;;;;;;;10.32;0.90;;;32.20;46.40;31.90;100288;;;;574815;245;23073;-84
2022/07/27 10:13:49;;;;;;;26.80;1.65;;;32.40;46.40;32.00;100277;;;;574813;246;23150;-83
2022/07/27 10:16:24;;;;;;;6.05;1.05;;;32.50;46.50;31.30;100296;;;;574747;246;23140;-84
2022/07/27 10:19:13;;;;;;;6.85;1.10;;;32.10;46.60;30.10;100298;;;;584413;244;23079;-83
2022/07/27 10:21:41;;;;;;;6.37;1.48;;;31.10;47.70;28.80;100308;;;;576467;244;23253;-83
2022/07/27 10:24:09;;;;;;;15.63;1.33;;;29.80;50.10;27.70;100301;;;;578931;244;24096;-85
2022/07/27 10:26:40;;;;;;;5.93;0.90;;;28.60;52.10;26.60;100308;;;;578887;244;23078;-83
2022/07/27 10:29:14;;;;;;;2.00;0.70;;;27.50;54.30;25.80;100303;;;;576491;244;24057;-83
2022/07/27 10:31:51;;;;;;;1.43;0.80;;;26.50;56.50;25.20;100302;;;;576405;244;23078;-83
2022/07/27 10:34:40;;;;;;;19.87;2.93;;;25.80;58.30;24.70;100300;;;;576124;244;23125;-84
2022/07/27 10:37:17;;;;;;;2.77;0.80;;;25.20;59.80;24.50;100290;;;;578924;244;24056;-82
2022/07/27 10:39:49;;;;;;;2.40;0.90;;;24.90;61.20;24.70;100291;;;;587858;242;24101;-83
2022/07/27 10:42:28;;;;;;;3.50;0.90;;;24.90;61.40;25.10;100286;;;;579682;243;23115;-82
2022/07/27 10:44:59;;;;;;;7.10;0.80;;;25.30;60.50;25.50;100280;;;;579990;243;24121;-84
2022/07/27 10:47:27;;;;;;;9.93;1.00;;;25.70;58.70;26.10;100272;;;;588563;243;24080;-81
2022/07/27 10:50:17;;;;;;;52.77;3.83;;;26.30;57.80;26.50;100275;;;;579525;244;23081;-83
2022/07/27 10:52:48;;;;;;;2.30;0.67;;;26.80;56.60;26.80;100277;;;;577337;244;23141;-85
2022/07/27 10:55:31;;;;;;;15.53;1.40;;;27.00;56.00;26.90;100275;;;;576979;244;24096;-81
2022/07/27 10:58:18;;;;;;;6.77;0.70;;;27.20;55.30;26.80;100266;;;;579625;244;24131;-82
2022/07/27 11:00:51;;;;;;;4.10;0.47;;;27.00;55.00;26.60;100278;;;;579079;244;23080;-82
2022/07/27 11:03:38;;;;;;;5.13;0.90;;;26.90;55.50;26.30;100285;;;;576649;244;23101;-82
2022/07/27 11:06:11;;;;;;;23.20;2.83;;;26.70;55.70;25.90;100279;;;;579488;244;23095;-81
2022/07/27 11:08:47;;;;;;;6.57;0.67;;;26.00;57.30;25.60;100278;;;;579495;244;23144;-81
2022/07/27 11:11:15;;;;;;;0.80;0.47;;;26.00;57.30;25.30;100279;;;;579513;244;24080;-84
2022/07/27 11:13:48;;;;;;;2.75;0.88;;;25.70;58.10;25.10;100281;;;;574507;244;35072;-82
2022/07/27 11:16:14;;;;;;;4.03;0.63;;;25.50;58.50;24.90;100280;;;;579191;244;23101;-80
2022/07/27 11:18:41;;;;;;;1.90;0.70;;;25.20;58.90;24.50;100288;;;;579351;244;25165;-82